createdAt,value
2018-10-05T00:01:42.077Z,99.90
2018-10-05T00:04:10.434Z,99.90
2018-10-05T00:06:38.801Z,99.90
2018-10-05T00:09:10.035Z,99.90
2018-10-05T00:11:38.492Z,99.90
2018-10-05T00:14:07.454Z,99.90
2018-10-05T00:16:35.760Z,99.90
2018-10-05T00:19:04.143Z,99.90
2018-10-05T00:21:32.638Z,99.90
2018-10-05T00:24:01.303Z,99.90
2018-10-05T00:26:29.695Z,99.90
2018-10-05T00:28:58.136Z,99.90
2018-10-05T00:31:26.589Z,99.90
2018-10-05T00:33:54.911Z,99.90
2018-10-05T00:36:23.269Z,99.90
2018-10-05T00:38:51.677Z,99.90
2018-10-05T00:41:20.112Z,99.90
2018-10-05T00:43:48.524Z,99.90
2018-10-05T00:46:16.893Z,99.90
2018-10-05T00:48:45.313Z,99.90
2018-10-05T00:51:13.729Z,99.90
2018-10-05T00:53:42.197Z,99.90
2018-10-05T00:56:10.541Z,99.90
2018-10-05T00:58:39.019Z,99.90
2018-10-05T01:01:07.419Z,99.90
2018-10-05T01:03:35.790Z,99.90
2018-10-05T01:06:04.206Z,99.90
2018-10-05T01:08:32.542Z,99.90
2018-10-05T01:11:01.050Z,99.90
2018-10-05T01:13:29.398Z,99.90
2018-10-05T01:15:57.768Z,99.90
2018-10-05T01:18:26.114Z,99.90
2018-10-05T01:20:54.465Z,99.90
2018-10-05T01:23:22.854Z,99.90
2018-10-05T01:25:51.281Z,99.90
2018-10-05T01:28:19.711Z,99.90
2018-10-05T01:30:48.092Z,99.90
2018-10-05T01:33:16.450Z,99.90
2018-10-05T01:35:44.826Z,99.90
2018-10-05T01:38:13.279Z,99.90
2018-10-05T01:40:41.662Z,99.90
2018-10-05T01:43:10.059Z,99.90
2018-10-05T01:45:38.430Z,99.90
2018-10-05T01:48:06.770Z,99.90
2018-10-05T01:50:35.173Z,99.90
2018-10-05T01:53:03.501Z,99.90
2018-10-05T01:55:31.856Z,99.90
2018-10-05T01:58:00.181Z,99.90
2018-10-05T02:00:28.538Z,99.90
2018-10-05T02:02:56.877Z,99.90
2018-10-05T02:05:25.369Z,99.90
2018-10-05T02:07:53.776Z,99.90
2018-10-05T02:10:22.135Z,99.90
2018-10-05T02:12:50.559Z,99.90
2018-10-05T02:15:18.881Z,99.90
2018-10-05T02:17:47.322Z,99.90
2018-10-05T02:20:15.741Z,99.90
2018-10-05T02:22:44.174Z,99.90
2018-10-05T02:25:12.494Z,99.90
2018-10-05T02:27:40.988Z,99.90
2018-10-05T02:30:09.341Z,99.90
2018-10-05T02:32:37.685Z,99.90
2018-10-05T02:35:06.090Z,99.90
2018-10-05T02:37:34.483Z,99.90
2018-10-05T02:40:02.958Z,99.90
2018-10-05T02:42:31.277Z,99.90
2018-10-05T02:44:59.689Z,99.90
2018-10-05T02:47:28.197Z,99.90
2018-10-05T02:49:56.716Z,99.90
2018-10-05T02:52:25.180Z,99.90
2018-10-05T02:54:53.621Z,99.90
2018-10-05T02:57:22.049Z,99.90
2018-10-05T02:59:50.441Z,99.90
2018-10-05T03:02:33.000Z,99.90
2018-10-05T03:05:01.336Z,99.90
2018-10-05T03:07:30.589Z,99.90
2018-10-05T03:10:00.008Z,99.90
2018-10-05T03:12:28.538Z,99.90
2018-10-05T03:14:56.978Z,99.90
2018-10-05T03:17:25.315Z,99.90
2018-10-05T03:19:53.708Z,99.90
2018-10-05T03:22:21.983Z,99.90
2018-10-05T03:24:50.383Z,99.90
2018-10-05T03:27:18.678Z,99.90
2018-10-05T03:29:46.983Z,99.90
2018-10-05T03:32:15.414Z,99.90
2018-10-05T03:34:43.743Z,99.90
2018-10-05T03:37:12.103Z,99.90
2018-10-05T03:39:40.474Z,99.90
2018-10-05T03:42:08.854Z,99.90
2018-10-05T03:44:38.036Z,99.90
2018-10-05T03:47:06.391Z,99.90
2018-10-05T03:49:34.789Z,99.90
2018-10-05T03:52:03.157Z,99.90
2018-10-05T03:54:31.484Z,99.90
2018-10-05T03:56:59.817Z,99.90
2018-10-05T03:59:28.162Z,99.90
2018-10-05T04:01:56.475Z,99.90
2018-10-05T04:04:24.842Z,99.90
2018-10-05T04:06:53.144Z,99.90
2018-10-05T04:09:21.480Z,99.90
2018-10-05T04:11:49.930Z,99.90
2018-10-05T04:14:18.300Z,99.90
2018-10-05T04:16:46.655Z,99.90
2018-10-05T04:19:14.974Z,99.90
2018-10-05T04:21:43.421Z,99.90
2018-10-05T04:24:11.772Z,99.90
2018-10-05T04:26:40.120Z,99.90
2018-10-05T04:29:08.484Z,99.90
2018-10-05T04:31:36.919Z,99.90
2018-10-05T04:34:05.295Z,99.90
2018-10-05T04:36:33.649Z,99.90
2018-10-05T04:39:02.096Z,99.90
2018-10-05T04:41:30.418Z,99.90
2018-10-05T04:43:58.807Z,99.90
2018-10-05T04:46:27.187Z,99.90
2018-10-05T04:48:55.577Z,99.90
2018-10-05T04:51:23.908Z,99.90
2018-10-05T04:53:52.331Z,99.90
2018-10-05T04:56:20.784Z,99.90
2018-10-05T04:58:49.223Z,99.90
2018-10-05T05:01:17.905Z,99.90
2018-10-05T05:03:46.329Z,99.90
2018-10-05T05:06:14.782Z,99.90
2018-10-05T05:08:43.172Z,99.90
2018-10-05T05:11:11.581Z,99.90
2018-10-05T05:13:39.957Z,99.90
2018-10-05T05:16:08.379Z,99.90
2018-10-05T05:18:36.774Z,99.90
2018-10-05T05:21:05.651Z,99.90
2018-10-05T05:23:34.047Z,99.90
2018-10-05T05:26:02.461Z,99.90
2018-10-05T05:28:30.877Z,99.90
2018-10-05T05:30:59.268Z,99.90
2018-10-05T05:33:27.754Z,99.90
2018-10-05T05:35:56.111Z,99.90
2018-10-05T05:38:24.505Z,99.90
2018-10-05T05:40:52.877Z,99.90
2018-10-05T05:43:21.309Z,99.90
2018-10-05T05:45:49.670Z,99.90
2018-10-05T05:48:18.043Z,99.90
2018-10-05T05:50:46.462Z,99.90
2018-10-05T05:53:14.886Z,99.90
2018-10-05T05:55:43.330Z,99.90
2018-10-05T05:58:11.774Z,99.90
2018-10-05T06:00:40.205Z,99.90
2018-10-05T06:03:08.619Z,99.90
2018-10-05T06:05:36.994Z,99.90
2018-10-05T06:08:05.428Z,99.90
2018-10-05T06:10:33.781Z,99.90
2018-10-05T06:13:02.213Z,99.90
2018-10-05T06:15:30.659Z,99.90
2018-10-05T06:17:59.011Z,99.90
2018-10-05T06:20:27.432Z,99.90
2018-10-05T06:22:55.863Z,99.90
2018-10-05T06:25:24.259Z,99.90
2018-10-05T06:27:52.745Z,99.90
2018-10-05T06:30:21.147Z,99.90
2018-10-05T06:32:49.601Z,99.90
2018-10-05T06:35:18.016Z,99.90
2018-10-05T06:37:46.424Z,99.90
2018-10-05T06:40:14.830Z,99.90
2018-10-05T06:42:45.638Z,99.90
2018-10-05T06:45:14.095Z,99.90
2018-10-05T06:47:42.462Z,99.90
2018-10-05T06:50:10.822Z,99.90
2018-10-05T06:52:39.215Z,99.90
2018-10-05T06:55:07.554Z,99.90
2018-10-05T06:57:36.007Z,99.90
2018-10-05T07:00:04.627Z,99.90
2018-10-05T07:02:32.994Z,99.90
2018-10-05T07:05:01.447Z,99.90
2018-10-05T07:07:29.888Z,99.90
2018-10-05T07:09:58.277Z,99.90
2018-10-05T07:12:26.679Z,99.90
2018-10-05T07:14:55.030Z,99.90
2018-10-05T07:17:23.397Z,99.90
2018-10-05T07:19:51.741Z,99.90
2018-10-05T07:22:20.178Z,99.90
2018-10-05T07:24:48.522Z,99.90
2018-10-05T07:27:16.885Z,98.20
2018-10-05T07:29:45.301Z,98.20
2018-10-05T07:32:13.695Z,98.10
2018-10-05T07:34:42.116Z,98.90
2018-10-05T07:37:10.527Z,99.40
2018-10-05T07:39:38.828Z,99.70
2018-10-05T07:42:07.239Z,99.10
2018-10-05T07:44:35.582Z,99.10
2018-10-05T07:47:03.974Z,99.10
2018-10-05T07:49:32.325Z,99.20
2018-10-05T07:52:00.692Z,99.80
2018-10-05T07:54:29.050Z,99.90
2018-10-05T07:56:57.415Z,99.90
2018-10-05T07:59:25.758Z,99.90
2018-10-05T08:01:54.055Z,99.90
2018-10-05T08:04:22.410Z,99.90
2018-10-05T08:06:50.782Z,99.90
2018-10-05T08:09:19.231Z,99.90
2018-10-05T08:11:47.595Z,99.90
2018-10-05T08:14:15.970Z,99.90
2018-10-05T08:16:44.308Z,99.90
2018-10-05T08:19:12.688Z,99.90
2018-10-05T08:21:41.215Z,99.90
2018-10-05T08:24:09.466Z,99.90
2018-10-05T08:26:37.924Z,99.90
2018-10-05T08:29:06.294Z,99.90
2018-10-05T08:31:34.640Z,99.90
2018-10-05T08:34:03.055Z,99.90
2018-10-05T08:36:31.396Z,99.90
2018-10-05T08:38:59.766Z,99.90
2018-10-05T08:41:28.087Z,99.90
2018-10-05T08:43:56.585Z,99.90
2018-10-05T08:46:24.963Z,99.90
2018-10-05T08:48:53.423Z,99.90
2018-10-05T08:51:21.791Z,99.90
2018-10-05T08:53:50.140Z,99.90
2018-10-05T08:56:18.501Z,99.90
2018-10-05T08:58:46.837Z,99.90
2018-10-05T09:01:15.161Z,99.90
2018-10-05T09:03:43.483Z,99.90
2018-10-05T09:06:11.809Z,99.90
2018-10-05T09:08:40.167Z,99.90
2018-10-05T09:11:08.503Z,99.90
2018-10-05T09:13:36.897Z,99.90
2018-10-05T09:16:05.296Z,99.90
2018-10-05T09:18:33.672Z,99.90
2018-10-05T09:21:02.054Z,99.90
2018-10-05T09:23:30.493Z,99.90
2018-10-05T09:25:58.854Z,99.90
2018-10-05T09:28:27.228Z,99.90
2018-10-05T09:30:55.610Z,99.90
2018-10-05T09:33:24.023Z,99.90
2018-10-05T09:35:52.421Z,98.90
2018-10-05T09:38:20.782Z,99.90
2018-10-05T09:40:49.142Z,97.50
2018-10-05T09:43:17.578Z,96.10
2018-10-05T09:45:46.136Z,94.20
2018-10-05T09:48:14.480Z,95.40
2018-10-05T09:50:42.844Z,92.80
2018-10-05T09:53:11.230Z,92.90
2018-10-05T09:55:39.711Z,92.70
2018-10-05T09:58:08.093Z,92.10
2018-10-05T10:00:41.845Z,91.50
2018-10-05T10:03:15.758Z,91.10
2018-10-05T10:05:44.169Z,91.10
2018-10-05T10:08:12.652Z,90.90
2018-10-05T10:10:40.977Z,91.30
2018-10-05T10:13:09.360Z,90.90
2018-10-05T10:15:37.736Z,90.30
2018-10-05T10:18:06.258Z,87.50
2018-10-05T10:20:34.670Z,87.50
2018-10-05T10:23:03.042Z,88.60
2018-10-05T10:25:31.413Z,86.60
2018-10-05T10:27:59.833Z,86.30
2018-10-05T10:30:28.179Z,87.20
2018-10-05T10:32:56.653Z,86.80
2018-10-05T10:35:25.230Z,86.50
2018-10-05T10:37:53.783Z,85.50
2018-10-05T10:40:22.217Z,86.20
2018-10-05T10:42:50.684Z,86.10
2018-10-05T10:45:19.125Z,85.00
2018-10-05T10:47:47.530Z,85.20
2018-10-05T10:50:15.906Z,84.20
2018-10-05T10:52:44.269Z,84.50
2018-10-05T10:55:12.707Z,87.00
2018-10-05T10:57:41.136Z,86.80
2018-10-05T11:00:09.579Z,85.20
2018-10-05T11:02:37.930Z,83.20
2018-10-05T11:05:06.339Z,83.50
2018-10-05T11:07:34.860Z,83.20
2018-10-05T11:10:03.230Z,83.10
2018-10-05T11:12:31.609Z,83.20
2018-10-05T11:15:00.009Z,82.60
2018-10-05T11:17:28.456Z,82.30
2018-10-05T11:19:56.852Z,84.10
2018-10-05T11:22:25.318Z,80.70
2018-10-05T11:24:53.695Z,82.60
2018-10-05T11:27:22.049Z,81.80
2018-10-05T11:29:50.528Z,80.90
2018-10-05T11:32:18.889Z,79.80
2018-10-05T11:34:47.254Z,81.80
2018-10-05T11:37:15.750Z,79.70
2018-10-05T11:39:44.118Z,80.50
2018-10-05T11:42:12.567Z,79.40
2018-10-05T11:44:41.056Z,80.80
2018-10-05T11:47:09.555Z,81.00
2018-10-05T11:49:38.053Z,82.30
2018-10-05T11:52:06.608Z,82.20
2018-10-05T11:54:34.955Z,81.30
2018-10-05T11:57:03.448Z,80.80
2018-10-05T11:59:31.794Z,81.60
2018-10-05T12:02:00.131Z,81.90
2018-10-05T12:04:28.485Z,80.90
2018-10-05T12:06:57.002Z,80.40
2018-10-05T12:09:25.363Z,82.80
2018-10-05T12:11:53.705Z,82.40
2018-10-05T12:14:22.069Z,81.30
2018-10-05T12:16:50.471Z,81.90
2018-10-05T12:19:18.860Z,81.00
2018-10-05T12:21:47.192Z,80.70
2018-10-05T12:24:15.547Z,81.70
2018-10-05T12:26:43.976Z,80.50
2018-10-05T12:29:12.302Z,81.00
2018-10-05T12:31:40.650Z,80.50
2018-10-05T12:34:09.066Z,79.80
2018-10-05T12:36:37.397Z,80.10
2018-10-05T12:39:07.351Z,81.00
2018-10-05T12:41:36.214Z,80.00
2018-10-05T12:44:04.636Z,80.70
2018-10-05T12:46:33.010Z,80.60
2018-10-05T12:49:01.370Z,81.00
2018-10-05T12:51:29.740Z,81.00
2018-10-05T12:53:58.161Z,81.00
2018-10-05T12:56:27.095Z,81.10
2018-10-05T12:58:55.478Z,80.60
2018-10-05T13:01:23.877Z,81.20
2018-10-05T13:03:52.366Z,80.90
2018-10-05T13:06:20.765Z,80.30
2018-10-05T13:08:49.096Z,79.80
2018-10-05T13:11:17.473Z,81.00
2018-10-05T13:13:45.895Z,82.00
2018-10-05T13:16:14.428Z,81.90
2018-10-05T13:18:42.817Z,81.60
2018-10-05T13:21:11.216Z,82.10
2018-10-05T13:23:39.606Z,82.60
2018-10-05T13:26:08.719Z,82.60
2018-10-05T13:28:37.198Z,83.60
2018-10-05T13:31:05.627Z,84.10
2018-10-05T13:33:34.058Z,82.80
2018-10-05T13:36:02.464Z,83.50
2018-10-05T13:38:30.801Z,85.20
2018-10-05T13:40:59.211Z,84.30
2018-10-05T13:43:27.566Z,84.20
2018-10-05T13:45:55.923Z,83.30
2018-10-05T13:48:24.342Z,82.10
2018-10-05T13:50:52.692Z,81.00
2018-10-05T13:53:21.037Z,80.00
2018-10-05T13:55:49.428Z,80.20
2018-10-05T13:58:17.814Z,78.80
2018-10-05T14:00:46.193Z,78.50
2018-10-05T14:03:14.611Z,78.20
2018-10-05T14:05:43.026Z,79.30
2018-10-05T14:08:11.454Z,80.40
2018-10-05T14:10:39.825Z,81.20
2018-10-05T14:13:08.150Z,82.50
2018-10-05T14:15:36.529Z,83.50
2018-10-05T14:18:04.909Z,84.30
2018-10-05T14:20:33.323Z,84.40
2018-10-05T14:23:01.726Z,84.80
2018-10-05T14:25:30.138Z,85.40
2018-10-05T14:27:58.489Z,86.10
2018-10-05T14:30:26.969Z,84.20
2018-10-05T14:32:55.312Z,84.80
2018-10-05T14:35:23.721Z,86.00
2018-10-05T14:37:52.143Z,87.80
2018-10-05T14:40:20.513Z,87.00
2018-10-05T14:42:48.925Z,88.20
2018-10-05T14:45:17.267Z,88.20
2018-10-05T14:47:45.681Z,88.30
2018-10-05T14:50:14.065Z,88.30
2018-10-05T14:52:42.441Z,89.00
2018-10-05T14:55:10.875Z,89.30
2018-10-05T14:57:39.252Z,89.90
2018-10-05T15:00:07.606Z,88.80
2018-10-05T15:02:36.091Z,87.70
2018-10-05T15:05:04.473Z,87.90
2018-10-05T15:07:32.832Z,86.30
2018-10-05T15:10:01.213Z,86.20
2018-10-05T15:12:29.563Z,85.30
2018-10-05T15:14:57.966Z,82.20
2018-10-05T15:17:26.428Z,81.30
2018-10-05T15:19:54.769Z,80.60
2018-10-05T15:22:23.099Z,80.90
2018-10-05T15:24:51.497Z,80.70
2018-10-05T15:27:19.929Z,80.30
2018-10-05T15:29:48.266Z,79.80
2018-10-05T15:32:16.716Z,79.30
2018-10-05T15:34:45.176Z,80.60
2018-10-05T15:37:13.630Z,83.00
2018-10-05T15:39:42.045Z,86.70
2018-10-05T15:42:10.377Z,89.20
2018-10-05T15:44:38.727Z,90.30
2018-10-05T15:47:08.266Z,90.80
2018-10-05T15:49:37.257Z,91.30
2018-10-05T15:52:05.619Z,91.90
2018-10-05T15:54:34.014Z,92.20
2018-10-05T15:57:02.492Z,92.40
2018-10-05T15:59:31.614Z,92.60
2018-10-05T16:01:59.979Z,92.90
2018-10-05T16:04:29.094Z,93.10
2018-10-05T16:06:57.788Z,93.20
2018-10-05T16:09:26.218Z,93.50
2018-10-05T16:11:54.883Z,93.60
2018-10-05T16:14:23.318Z,93.70
2018-10-05T16:16:51.666Z,94.00
2018-10-05T16:19:20.021Z,94.10
2018-10-05T16:21:48.386Z,94.10
2018-10-05T16:24:21.362Z,94.20
2018-10-05T16:26:50.060Z,94.50
2018-10-05T16:29:18.460Z,94.60
2018-10-05T16:31:46.979Z,94.90
2018-10-05T16:34:15.379Z,94.90
2018-10-05T16:36:43.953Z,95.20
2018-10-05T16:39:12.697Z,95.40
2018-10-05T16:41:41.138Z,95.50
2018-10-05T16:44:09.556Z,95.40
2018-10-05T16:46:38.790Z,95.60
2018-10-05T16:49:08.706Z,95.70
2018-10-05T16:51:37.086Z,95.90
2018-10-05T16:54:05.470Z,96.20
2018-10-05T16:56:33.946Z,96.40
2018-10-05T16:59:02.425Z,96.80
2018-10-05T17:01:30.765Z,97.00
2018-10-05T17:03:59.247Z,97.20
2018-10-05T17:06:27.622Z,97.30
2018-10-05T17:08:59.338Z,97.60
2018-10-05T17:11:27.671Z,97.70
2018-10-05T17:13:56.201Z,97.80
2018-10-05T17:16:24.609Z,97.90
2018-10-05T17:18:52.964Z,98.10
2018-10-05T17:21:21.375Z,98.30
2018-10-05T17:23:49.756Z,98.80
2018-10-05T17:26:18.079Z,98.60
2018-10-05T17:28:46.618Z,98.80
2018-10-05T17:31:14.984Z,98.90
2018-10-05T17:33:43.377Z,99.10
2018-10-05T17:36:11.747Z,99.20
2018-10-05T17:38:40.092Z,99.30
2018-10-05T17:41:08.606Z,99.70
2018-10-05T17:43:36.921Z,99.50
2018-10-05T17:46:05.334Z,99.60
2018-10-05T17:48:33.649Z,99.70
2018-10-05T17:51:02.176Z,99.80
2018-10-05T17:53:30.563Z,99.80
2018-10-05T17:55:59.265Z,99.90
2018-10-05T17:58:27.620Z,99.90
2018-10-05T18:00:55.953Z,99.90
2018-10-05T18:03:24.297Z,99.90
2018-10-05T18:05:52.699Z,99.90
2018-10-05T18:08:21.112Z,99.90
2018-10-05T18:10:49.557Z,99.90
2018-10-05T18:13:17.908Z,99.90
2018-10-05T18:15:46.452Z,99.90
2018-10-05T18:18:15.049Z,99.90
2018-10-05T18:20:43.438Z,99.90
2018-10-05T18:23:11.867Z,99.90
2018-10-05T18:25:40.272Z,99.90
2018-10-05T18:28:08.677Z,99.90
2018-10-05T18:30:37.208Z,99.90
2018-10-05T18:33:05.587Z,99.90
2018-10-05T18:35:34.002Z,99.90
2018-10-05T18:38:02.387Z,99.90
2018-10-05T18:40:30.810Z,99.90
2018-10-05T18:42:59.257Z,99.90
2018-10-05T18:45:27.688Z,99.90
2018-10-05T18:47:56.148Z,99.90
2018-10-05T18:50:24.559Z,99.90
2018-10-05T18:52:53.089Z,99.90
2018-10-05T18:55:21.532Z,99.90
2018-10-05T18:57:49.885Z,99.90
2018-10-05T19:00:18.483Z,99.90
2018-10-05T19:02:47.101Z,99.90
2018-10-05T19:05:15.494Z,99.90
2018-10-05T19:07:43.985Z,99.90
2018-10-05T19:10:12.424Z,99.90
2018-10-05T19:12:40.800Z,99.90
2018-10-05T19:15:09.180Z,99.90
2018-10-05T19:17:37.569Z,99.90
2018-10-05T19:20:06.003Z,99.90
2018-10-05T19:22:34.438Z,99.90
2018-10-05T19:25:02.836Z,99.90
2018-10-05T19:27:31.339Z,99.90
2018-10-05T19:29:59.794Z,99.90
2018-10-05T19:32:28.191Z,99.90
2018-10-05T19:34:56.577Z,99.90
2018-10-05T19:37:25.064Z,99.90
2018-10-05T19:39:53.474Z,99.90
2018-10-05T19:42:21.939Z,99.90
2018-10-05T19:44:50.839Z,99.90
2018-10-05T19:47:19.327Z,99.90
2018-10-05T19:49:47.720Z,99.90
2018-10-05T19:52:16.109Z,99.90
2018-10-05T19:54:44.541Z,99.90
2018-10-05T19:57:12.939Z,99.90
2018-10-05T19:59:41.389Z,99.90
2018-10-05T20:02:09.840Z,99.90
2018-10-05T20:04:38.258Z,99.90
2018-10-05T20:07:06.622Z,99.90
2018-10-05T20:09:35.011Z,99.90
2018-10-05T20:12:03.581Z,99.90
2018-10-05T20:14:32.101Z,99.90
2018-10-05T20:17:00.584Z,99.90
2018-10-05T20:19:29.005Z,99.90
2018-10-05T20:21:57.448Z,99.90
2018-10-05T20:24:26.107Z,99.90
2018-10-05T20:26:54.458Z,99.90
2018-10-05T20:29:22.873Z,99.90
2018-10-05T20:31:51.307Z,99.90
2018-10-05T20:34:19.684Z,99.90
2018-10-05T20:36:48.379Z,99.90
2018-10-05T20:39:16.530Z,99.90
2018-10-05T20:41:44.948Z,99.90
2018-10-05T20:44:13.402Z,99.90
2018-10-05T20:46:41.809Z,99.90
2018-10-05T20:49:10.208Z,99.90
2018-10-05T20:51:38.616Z,99.90
2018-10-05T20:54:07.003Z,99.90
2018-10-05T20:56:35.419Z,99.90
2018-10-05T20:59:03.857Z,99.90
2018-10-05T21:01:32.236Z,99.90
2018-10-05T21:04:00.654Z,99.90
2018-10-05T21:06:29.002Z,99.90
2018-10-05T21:08:57.398Z,99.90
2018-10-05T21:11:25.842Z,99.90
2018-10-05T21:13:54.272Z,99.90
2018-10-05T21:16:22.672Z,99.90
2018-10-05T21:18:51.071Z,99.90
2018-10-05T21:21:19.489Z,99.90
2018-10-05T21:23:47.846Z,99.90
2018-10-05T21:26:16.211Z,99.90
2018-10-05T21:28:44.642Z,99.90
2018-10-05T21:31:13.047Z,99.90
2018-10-05T21:33:41.448Z,99.90
2018-10-05T21:36:09.790Z,99.90
2018-10-05T21:38:38.256Z,99.90
2018-10-05T21:41:06.714Z,99.90
2018-10-05T21:43:35.161Z,99.90
2018-10-05T21:46:03.557Z,99.90
2018-10-05T21:48:31.945Z,99.90
2018-10-05T21:51:00.352Z,99.90
2018-10-05T21:53:28.793Z,99.90
2018-10-05T21:55:57.226Z,99.90
2018-10-05T21:58:25.587Z,99.90
2018-10-05T22:00:53.977Z,99.90
2018-10-05T22:03:22.350Z,99.90
2018-10-05T22:05:50.937Z,99.90
2018-10-05T22:08:19.283Z,99.90
2018-10-05T22:10:47.627Z,99.90
2018-10-05T22:13:16.020Z,99.90
2018-10-05T22:15:44.335Z,99.90
2018-10-05T22:18:12.757Z,99.90
2018-10-05T22:20:41.098Z,99.90
2018-10-05T22:23:09.456Z,99.90
2018-10-05T22:25:37.808Z,99.90
2018-10-05T22:28:06.176Z,99.90
2018-10-05T22:30:34.630Z,99.90
2018-10-05T22:33:02.955Z,99.90
2018-10-05T22:35:31.316Z,99.90
2018-10-05T22:37:59.692Z,99.90
2018-10-05T22:40:28.037Z,99.90
2018-10-05T22:42:56.407Z,99.90
2018-10-05T22:45:24.778Z,99.90
2018-10-05T22:47:53.148Z,99.90
2018-10-05T22:50:21.521Z,99.90
2018-10-05T22:52:49.866Z,99.90
2018-10-05T22:55:18.265Z,99.90
2018-10-05T22:57:46.609Z,99.90
2018-10-05T23:00:14.980Z,99.90
2018-10-05T23:02:43.334Z,99.90
2018-10-05T23:05:11.688Z,99.90
2018-10-05T23:07:40.069Z,99.90
2018-10-05T23:10:08.451Z,99.90
2018-10-05T23:12:36.850Z,99.90
2018-10-05T23:15:05.694Z,99.90
2018-10-05T23:17:34.014Z,99.90
2018-10-05T23:20:02.377Z,99.90
2018-10-05T23:22:30.725Z,99.90
2018-10-05T23:24:59.201Z,99.90
2018-10-05T23:27:27.782Z,99.90
2018-10-05T23:29:56.152Z,99.90
2018-10-05T23:32:24.560Z,99.90
2018-10-05T23:34:52.985Z,99.90
2018-10-05T23:37:21.349Z,99.90
2018-10-05T23:39:49.687Z,99.90
2018-10-05T23:42:18.022Z,99.90
2018-10-05T23:44:46.498Z,99.90
2018-10-05T23:47:14.862Z,99.90
2018-10-05T23:49:43.194Z,99.90
2018-10-05T23:52:22.777Z,99.90
2018-10-05T23:54:51.087Z,99.90
2018-10-05T23:57:19.540Z,99.90
2018-10-05T23:59:47.859Z,99.90
